Hartlepool, United Kingdom
Current Conditions -  °F | °C
As of 2:50 PM on Friday 24 Oct 2014 (Local Time) from EGNV Reporting Station
Scattered Clouds Scattered Clouds  
Wind Chill: 59°   Ceiling: Unl
Heat Index: 59°   Visibility: 6mi
Dew Point: 43°   Wind: 13mph
Humidity: 55%   Direction: 210°SSW
Pressure: 29.8"   Gusts: NA
Location:  54.67°N, 1.27°W
Report Text: EGNV 241350Z 21011KT 9999 FEW030 SCT040 15/06 Q1009
Loading
Personal Weather Stations






























Interactive Weather Map New forecast layout! Learn more

10-Day Weather Forecast

Advertisements
Track Severe Weather on mobile